createdAt,value
2023-02-15T00:00:42.046Z,15.00
2023-02-15T00:02:04.156Z,16.77
2023-02-15T00:03:26.199Z,15.40
2023-02-15T00:04:48.268Z,16.43
2023-02-15T00:06:10.312Z,16.73
2023-02-15T00:07:32.404Z,16.43
2023-02-15T00:08:55.600Z,16.60
2023-02-15T00:10:18.276Z,17.20
2023-02-15T00:11:40.510Z,16.30
2023-02-15T00:13:02.689Z,17.20
2023-02-15T00:14:25.905Z,17.17
2023-02-15T00:15:47.949Z,16.07
2023-02-15T00:17:10.010Z,16.43
2023-02-15T00:18:32.276Z,16.77
2023-02-15T00:19:54.345Z,17.40
2023-02-15T00:21:16.427Z,17.33
2023-02-15T00:22:39.370Z,17.67
2023-02-15T00:24:03.015Z,18.60
2023-02-15T00:25:25.242Z,16.90
2023-02-15T00:26:48.330Z,17.90
2023-02-15T00:28:10.394Z,15.57
2023-02-15T00:29:32.605Z,16.70
2023-02-15T00:30:54.783Z,16.53
2023-02-15T00:32:16.874Z,15.60
2023-02-15T00:33:39.939Z,16.17
2023-02-15T00:35:01.986Z,17.10
2023-02-15T00:36:26.972Z,15.90
2023-02-15T00:37:50.040Z,17.50
2023-02-15T00:39:13.121Z,17.00
2023-02-15T00:40:35.216Z,16.17
2023-02-15T00:41:57.277Z,17.13
2023-02-15T00:43:19.334Z,16.50
2023-02-15T00:44:41.364Z,15.73
2023-02-15T00:46:05.323Z,17.33
2023-02-15T00:47:27.477Z,17.13
2023-02-15T00:48:49.643Z,16.27
2023-02-15T00:50:11.711Z,15.67
2023-02-15T00:51:33.928Z,14.70
2023-02-15T00:52:55.982Z,16.00
2023-02-15T00:54:18.155Z,16.50
2023-02-15T00:55:41.206Z,16.10
2023-02-15T00:57:03.314Z,15.60
2023-02-15T00:58:25.617Z,16.40
2023-02-15T00:59:47.735Z,15.53
2023-02-15T01:01:16.510Z,16.77
2023-02-15T01:02:38.552Z,16.13
2023-02-15T01:04:00.678Z,16.90
2023-02-15T01:05:22.748Z,15.53
2023-02-15T01:06:44.840Z,16.80
2023-02-15T01:08:07.162Z,17.47
2023-02-15T01:09:29.208Z,16.60
2023-02-15T01:10:51.274Z,16.63
2023-02-15T01:12:13.338Z,17.10
2023-02-15T01:13:36.184Z,16.93
2023-02-15T01:14:58.260Z,16.47
2023-02-15T01:16:21.289Z,17.93
2023-02-15T01:17:44.990Z,14.83
2023-02-15T01:19:07.217Z,14.80
2023-02-15T01:20:30.571Z,14.50
2023-02-15T01:21:52.586Z,16.77
2023-02-15T01:23:14.886Z,16.40
2023-02-15T01:24:37.377Z,16.17
2023-02-15T01:26:03.645Z,16.30
2023-02-15T01:27:25.826Z,16.08
2023-02-15T01:28:48.021Z,16.37
2023-02-15T01:30:11.272Z,16.30
2023-02-15T01:31:33.497Z,16.37
2023-02-15T01:32:55.661Z,15.70
2023-02-15T01:34:17.738Z,16.10
2023-02-15T01:35:39.864Z,15.77
2023-02-15T01:37:01.961Z,15.90
2023-02-15T01:38:23.982Z,17.47
2023-02-15T01:39:45.974Z,17.10
2023-02-15T01:41:20.828Z,16.00
2023-02-15T01:42:43.247Z,17.13
2023-02-15T01:44:43.721Z,15.60
2023-02-15T01:46:05.968Z,16.70
2023-02-15T01:47:33.021Z,16.17
2023-02-15T01:49:22.650Z,17.90
2023-02-15T01:50:53.167Z,18.53
2023-02-15T01:52:18.579Z,18.97
2023-02-15T01:53:52.796Z,16.73
2023-02-15T01:55:15.617Z,16.07
2023-02-15T01:56:40.359Z,18.53
2023-02-15T01:58:03.025Z,17.83
2023-02-15T01:59:26.900Z,17.20
2023-02-15T02:00:49.071Z,17.20
2023-02-15T02:02:15.822Z,18.10
2023-02-15T02:04:02.635Z,17.47
2023-02-15T02:05:25.448Z,17.00
2023-02-15T02:06:50.651Z,19.00
2023-02-15T02:08:12.879Z,18.00
2023-02-15T02:09:36.707Z,19.20
2023-02-15T02:10:58.822Z,18.27
2023-02-15T02:12:23.082Z,18.03
2023-02-15T02:13:46.258Z,17.30
2023-02-15T02:15:08.882Z,18.30
2023-02-15T02:16:47.911Z,18.23
2023-02-15T02:18:19.236Z,18.80
2023-02-15T02:20:07.379Z,17.77
2023-02-15T02:21:41.381Z,19.37
2023-02-15T02:23:31.214Z,18.67
2023-02-15T02:25:23.904Z,18.77
2023-02-15T02:26:59.853Z,18.37
2023-02-15T02:28:33.643Z,18.10
2023-02-15T02:30:23.504Z,18.40
2023-02-15T02:32:23.365Z,18.50
2023-02-15T02:34:17.506Z,20.30
2023-02-15T02:35:52.937Z,18.57
2023-02-15T02:37:31.253Z,18.90
2023-02-15T02:39:13.631Z,18.80
2023-02-15T02:40:44.530Z,19.40
2023-02-15T02:42:22.400Z,19.00
2023-02-15T02:43:47.213Z,19.60
2023-02-15T02:45:22.823Z,19.17
2023-02-15T02:46:56.892Z,21.63
2023-02-15T02:48:26.290Z,19.30
2023-02-15T02:49:48.333Z,20.50
2023-02-15T02:51:10.358Z,20.67
2023-02-15T02:52:51.075Z,21.67
2023-02-15T02:54:13.160Z,19.63
2023-02-15T02:55:46.921Z,20.53
2023-02-15T02:57:10.683Z,18.10
2023-02-15T02:58:52.540Z,19.67
2023-02-15T03:00:16.657Z,19.37
2023-02-15T03:01:45.842Z,19.57
2023-02-15T03:03:12.446Z,20.47
2023-02-15T03:04:39.924Z,20.47
2023-02-15T03:06:10.450Z,21.10
2023-02-15T03:07:33.557Z,20.80
2023-02-15T03:09:17.818Z,21.20
2023-02-15T03:10:41.407Z,19.10
2023-02-15T03:12:06.373Z,21.37
2023-02-15T03:13:29.420Z,22.87
2023-02-15T03:14:58.068Z,22.50
2023-02-15T03:16:27.229Z,21.77
2023-02-15T03:17:58.684Z,20.30
2023-02-15T03:19:27.360Z,23.17
2023-02-15T03:20:51.393Z,22.43
2023-02-15T03:22:21.322Z,22.03
2023-02-15T03:23:43.623Z,21.23
2023-02-15T03:25:22.842Z,21.80
2023-02-15T03:26:48.646Z,20.30
2023-02-15T03:28:18.122Z,22.07
2023-02-15T03:29:40.773Z,21.40
2023-02-15T03:31:06.319Z,20.37
2023-02-15T03:32:30.566Z,22.93
2023-02-15T03:34:13.742Z,19.40
2023-02-15T03:35:50.108Z,21.67
2023-02-15T03:37:31.452Z,21.80
2023-02-15T03:39:15.082Z,21.30
2023-02-15T03:41:02.600Z,21.00
2023-02-15T03:42:32.476Z,20.93
2023-02-15T03:44:07.799Z,23.43
2023-02-15T03:45:34.107Z,19.43
2023-02-15T03:47:03.189Z,20.40
2023-02-15T03:48:33.941Z,21.90
2023-02-15T03:50:28.654Z,23.00
2023-02-15T03:51:54.460Z,20.03
2023-02-15T03:53:22.040Z,20.97
2023-02-15T03:54:45.720Z,20.57
2023-02-15T03:56:07.787Z,21.10
2023-02-15T03:57:48.952Z,22.07
2023-02-15T03:59:29.539Z,21.73
2023-02-15T04:01:24.534Z,21.00
2023-02-15T04:03:10.709Z,22.03
2023-02-15T04:04:43.094Z,22.10
2023-02-15T04:06:05.665Z,21.20
2023-02-15T04:07:27.710Z,23.43
2023-02-15T04:09:08.647Z,21.00
2023-02-15T04:10:49.132Z,23.60
2023-02-15T04:12:11.205Z,22.93
2023-02-15T04:13:33.886Z,20.70
2023-02-15T04:15:14.425Z,21.83
2023-02-15T04:16:36.522Z,22.30
2023-02-15T04:17:58.779Z,21.57
2023-02-15T04:19:39.538Z,24.13
2023-02-15T04:21:20.303Z,21.20
2023-02-15T04:23:00.895Z,21.17
2023-02-15T04:24:41.716Z,20.93
2023-02-15T04:26:05.509Z,19.40
2023-02-15T04:27:27.556Z,21.10
2023-02-15T04:28:49.572Z,22.50
2023-02-15T04:30:14.083Z,21.90
2023-02-15T04:31:36.206Z,22.13
2023-02-15T04:32:58.400Z,21.23
2023-02-15T04:34:20.424Z,23.27
2023-02-15T04:35:45.912Z,22.30
2023-02-15T04:37:07.965Z,21.73
2023-02-15T04:38:29.981Z,22.57
2023-02-15T04:39:52.072Z,22.73
2023-02-15T04:41:14.112Z,22.73
2023-02-15T04:42:36.127Z,21.47
2023-02-15T04:43:58.318Z,22.03
2023-02-15T04:45:20.349Z,21.70
2023-02-15T04:46:42.367Z,21.53
2023-02-15T04:48:04.429Z,21.40
2023-02-15T04:49:26.502Z,20.97
2023-02-15T04:50:48.580Z,22.30
2023-02-15T04:52:11.274Z,21.20
2023-02-15T04:53:33.570Z,21.90
2023-02-15T04:54:55.663Z,21.80
2023-02-15T04:56:17.664Z,17.87
2023-02-15T04:57:39.718Z,22.67
2023-02-15T04:59:02.065Z,19.90
2023-02-15T05:00:24.185Z,21.27
2023-02-15T05:01:46.300Z,21.00
2023-02-15T05:03:08.346Z,21.20
2023-02-15T05:04:30.623Z,21.50
2023-02-15T05:05:52.679Z,20.60
2023-02-15T05:07:15.737Z,19.57
2023-02-15T05:08:37.892Z,21.10
2023-02-15T05:09:59.924Z,20.70
2023-02-15T05:11:22.173Z,21.67
2023-02-15T05:12:44.246Z,19.50
2023-02-15T05:14:06.492Z,20.03
2023-02-15T05:15:28.542Z,21.10
2023-02-15T05:16:50.735Z,22.00
2023-02-15T05:18:12.866Z,19.93
2023-02-15T05:19:34.914Z,19.70
2023-02-15T05:20:57.016Z,21.77
2023-02-15T05:22:19.117Z,20.23
2023-02-15T05:23:41.149Z,21.20
2023-02-15T05:25:21.620Z,21.10
2023-02-15T05:27:02.321Z,21.40
2023-02-15T05:28:27.244Z,18.77
2023-02-15T05:29:49.412Z,17.63
2023-02-15T05:31:17.795Z,18.87
2023-02-15T05:32:40.495Z,20.53
2023-02-15T05:34:03.450Z,20.73
2023-02-15T05:35:25.583Z,21.27
2023-02-15T05:36:47.602Z,20.47
2023-02-15T05:38:09.921Z,20.90
2023-02-15T05:39:31.923Z,21.23
2023-02-15T05:40:54.282Z,19.80
2023-02-15T05:42:16.315Z,21.57
2023-02-15T05:43:39.489Z,21.60
2023-02-15T05:45:01.643Z,22.33
2023-02-15T05:46:23.765Z,19.23
2023-02-15T05:47:45.856Z,21.57
2023-02-15T05:49:07.891Z,20.60
2023-02-15T05:50:30.032Z,18.90
2023-02-15T05:51:52.094Z,19.90
2023-02-15T05:53:14.217Z,19.67
2023-02-15T05:54:36.222Z,20.73
2023-02-15T05:56:03.359Z,20.27
2023-02-15T05:57:25.606Z,20.03
2023-02-15T05:58:47.638Z,19.27
2023-02-15T06:00:10.960Z,19.33
2023-02-15T06:01:33.006Z,19.90
2023-02-15T06:02:55.101Z,19.10
2023-02-15T06:04:17.755Z,21.30
2023-02-15T06:05:39.758Z,19.13
2023-02-15T06:07:01.810Z,18.20
2023-02-15T06:08:23.846Z,20.63
2023-02-15T06:09:45.907Z,19.70
2023-02-15T06:11:08.456Z,19.27
2023-02-15T06:12:30.697Z,19.20
2023-02-15T06:13:52.802Z,19.37
2023-02-15T06:15:15.033Z,20.40
2023-02-15T06:16:37.207Z,17.10
2023-02-15T06:17:59.765Z,17.00
2023-02-15T06:19:23.554Z,16.70
2023-02-15T06:20:48.521Z,16.87
2023-02-15T06:22:10.682Z,17.77
2023-02-15T06:23:32.715Z,17.67
2023-02-15T06:24:54.786Z,15.30
2023-02-15T06:26:16.813Z,19.43
2023-02-15T06:27:41.785Z,16.33
2023-02-15T06:29:03.909Z,16.33
2023-02-15T06:30:26.024Z,16.63
2023-02-15T06:31:48.207Z,16.43
2023-02-15T06:33:10.309Z,16.37
2023-02-15T06:34:32.863Z,15.13
2023-02-15T06:35:54.940Z,16.70
2023-02-15T06:37:17.005Z,15.97
2023-02-15T06:38:39.129Z,15.87
2023-02-15T06:40:03.665Z,15.87
2023-02-15T06:41:26.004Z,15.20
2023-02-15T06:42:48.072Z,14.63
2023-02-15T06:44:10.169Z,16.03
2023-02-15T06:45:32.244Z,15.70
2023-02-15T06:46:54.421Z,16.30
2023-02-15T06:48:16.482Z,15.60
2023-02-15T06:49:38.750Z,15.50
2023-02-15T06:51:00.768Z,16.60
2023-02-15T06:52:22.869Z,16.87
2023-02-15T06:53:45.036Z,16.27
2023-02-15T06:55:07.611Z,17.13
2023-02-15T06:56:30.599Z,14.93
2023-02-15T06:57:53.018Z,15.43
2023-02-15T06:59:15.046Z,16.07
2023-02-15T07:00:37.043Z,16.30
2023-02-15T07:01:59.526Z,16.00
2023-02-15T07:03:21.589Z,15.80
2023-02-15T07:04:43.682Z,16.80
2023-02-15T07:06:09.135Z,16.83
2023-02-15T07:07:31.274Z,15.40
2023-02-15T07:08:53.380Z,16.40
2023-02-15T07:10:15.532Z,16.40
2023-02-15T07:11:56.274Z,15.57
2023-02-15T07:13:18.802Z,16.23
2023-02-15T07:14:41.562Z,16.50
2023-02-15T07:16:04.229Z,15.60
2023-02-15T07:17:36.916Z,16.03
2023-02-15T07:18:59.177Z,15.90
2023-02-15T07:20:23.294Z,15.07
2023-02-15T07:21:46.512Z,14.63
2023-02-15T07:23:09.365Z,16.03
2023-02-15T07:24:31.736Z,16.00
2023-02-15T07:26:01.586Z,17.07
2023-02-15T07:27:23.727Z,16.87
2023-02-15T07:28:45.739Z,15.33
2023-02-15T07:30:11.095Z,16.60
2023-02-15T07:31:33.299Z,16.50
2023-02-15T07:33:17.888Z,16.23
2023-02-15T07:34:41.496Z,16.90
2023-02-15T07:36:05.162Z,17.13
2023-02-15T07:37:28.411Z,17.70
2023-02-15T07:38:50.445Z,18.67
2023-02-15T07:40:12.806Z,17.30
2023-02-15T07:41:34.847Z,16.10
2023-02-15T07:42:59.937Z,18.47
2023-02-15T07:44:22.044Z,19.70
2023-02-15T07:45:44.287Z,16.00
2023-02-15T07:47:06.341Z,18.83
2023-02-15T07:48:28.417Z,18.70
2023-02-15T07:49:50.494Z,18.97
2023-02-15T07:51:12.995Z,20.33
2023-02-15T07:52:35.036Z,18.27
2023-02-15T07:53:57.084Z,20.03
2023-02-15T07:55:19.551Z,19.13
2023-02-15T07:56:41.979Z,18.43
2023-02-15T07:58:04.101Z,17.27
2023-02-15T07:59:26.261Z,18.60
2023-02-15T08:00:57.546Z,19.30
2023-02-15T08:02:19.607Z,18.20
2023-02-15T08:03:41.994Z,16.87
2023-02-15T08:05:04.479Z,18.60
2023-02-15T08:06:31.018Z,17.33
2023-02-15T08:07:53.041Z,17.53
2023-02-15T08:09:15.146Z,18.00
2023-02-15T08:10:56.037Z,17.50
2023-02-15T08:12:18.056Z,18.77
2023-02-15T08:13:54.406Z,20.20
2023-02-15T08:15:16.604Z,18.70
2023-02-15T08:16:42.817Z,19.40
2023-02-15T08:18:05.093Z,18.20
2023-02-15T08:19:32.822Z,19.83
2023-02-15T08:20:55.334Z,18.87
2023-02-15T08:22:17.356Z,18.00
2023-02-15T08:23:39.428Z,18.40
2023-02-15T08:25:01.490Z,17.73
2023-02-15T08:26:24.744Z,18.30
2023-02-15T08:27:46.757Z,19.80
2023-02-15T08:29:09.856Z,20.40
2023-02-15T08:30:33.365Z,18.07
2023-02-15T08:32:03.850Z,17.97
2023-02-15T08:33:26.585Z,18.40
2023-02-15T08:34:48.884Z,17.33
2023-02-15T08:36:14.856Z,19.97
2023-02-15T08:37:37.184Z,18.60
2023-02-15T08:39:00.923Z,17.77
2023-02-15T08:40:22.955Z,18.70
2023-02-15T08:41:46.718Z,17.33
2023-02-15T08:43:09.037Z,17.53
2023-02-15T08:44:31.116Z,16.83
2023-02-15T08:45:53.280Z,16.90
2023-02-15T08:47:15.320Z,18.40
2023-02-15T08:48:37.471Z,18.63
2023-02-15T08:49:59.505Z,19.10
2023-02-15T08:51:27.453Z,18.77
2023-02-15T08:52:49.466Z,19.00
2023-02-15T08:54:15.158Z,18.30
2023-02-15T08:55:37.212Z,18.50
2023-02-15T08:56:59.800Z,17.27
2023-02-15T08:58:21.896Z,19.07
2023-02-15T08:59:43.921Z,18.50
2023-02-15T09:01:11.117Z,18.03
2023-02-15T09:02:33.275Z,17.73
2023-02-15T09:04:05.170Z,18.90
2023-02-15T09:05:27.249Z,16.73
2023-02-15T09:06:50.718Z,18.10
2023-02-15T09:08:12.829Z,16.53
2023-02-15T09:09:34.969Z,19.00
2023-02-15T09:11:26.155Z,19.17
2023-02-15T09:12:50.303Z,20.70
2023-02-15T09:14:18.153Z,18.80
2023-02-15T09:15:40.212Z,18.00
2023-02-15T09:17:02.331Z,18.30
2023-02-15T09:18:25.391Z,17.33
2023-02-15T09:19:47.411Z,17.97
2023-02-15T09:21:17.245Z,16.50
2023-02-15T09:22:39.331Z,19.00
2023-02-15T09:24:04.002Z,18.67
2023-02-15T09:25:26.126Z,18.53
2023-02-15T09:26:49.604Z,18.10
2023-02-15T09:28:11.936Z,19.00
2023-02-15T09:29:34.002Z,18.77
2023-02-15T09:30:57.738Z,19.53
2023-02-15T09:32:19.890Z,19.30
2023-02-15T09:33:43.158Z,19.50
2023-02-15T09:35:05.626Z,18.83
2023-02-15T09:36:33.516Z,17.90
2023-02-15T09:37:55.634Z,19.30
2023-02-15T09:39:19.435Z,18.83
2023-02-15T09:40:51.067Z,18.67
2023-02-15T09:42:25.286Z,20.47
2023-02-15T09:44:07.298Z,17.57
2023-02-15T09:45:42.428Z,17.30
2023-02-15T09:47:49.062Z,18.77
2023-02-15T09:49:47.875Z,19.73
2023-02-15T09:51:27.849Z,19.30
2023-02-15T09:52:49.863Z,18.93
2023-02-15T09:54:47.605Z,20.73
2023-02-15T09:56:39.729Z,20.90
2023-02-15T09:58:16.806Z,19.57
2023-02-15T09:59:44.839Z,21.13
2023-02-15T10:01:06.986Z,22.33
2023-02-15T10:02:53.566Z,21.20
2023-02-15T10:04:18.428Z,21.83
2023-02-15T10:05:48.813Z,23.27
2023-02-15T10:07:41.475Z,22.77
2023-02-15T10:09:03.434Z,21.93
2023-02-15T10:10:36.581Z,21.63
2023-02-15T10:12:17.127Z,25.00
2023-02-15T10:13:50.823Z,23.23
2023-02-15T10:15:24.970Z,23.20
2023-02-15T10:16:52.914Z,25.10
2023-02-15T10:18:33.725Z,27.20
2023-02-15T10:20:21.538Z,23.97
2023-02-15T10:21:55.953Z,25.60
2023-02-15T10:23:57.746Z,24.70
2023-02-15T10:25:40.166Z,25.57
2023-02-15T10:27:13.648Z,26.57
2023-02-15T10:28:54.421Z,26.80
2023-02-15T10:30:36.317Z,27.20
2023-02-15T10:32:24.437Z,23.43
2023-02-15T10:33:46.748Z,23.90
2023-02-15T10:35:31.096Z,26.30
2023-02-15T10:37:11.577Z,24.60
2023-02-15T10:39:08.553Z,25.07
2023-02-15T10:41:00.976Z,25.10
2023-02-15T10:42:46.825Z,26.50
2023-02-15T10:44:51.091Z,26.27
2023-02-15T10:46:45.517Z,25.80
2023-02-15T10:48:23.845Z,24.67
2023-02-15T10:50:03.789Z,25.20
2023-02-15T10:51:31.470Z,27.60
2023-02-15T10:52:59.674Z,23.63
2023-02-15T10:54:33.740Z,26.93
2023-02-15T10:56:11.832Z,26.47
2023-02-15T10:58:11.604Z,26.23
2023-02-15T10:59:54.292Z,27.93
2023-02-15T11:01:25.866Z,26.83
2023-02-15T11:03:00.140Z,25.60
2023-02-15T11:04:22.204Z,29.50
2023-02-15T11:05:51.204Z,26.90
2023-02-15T11:07:18.983Z,26.13
2023-02-15T11:08:46.087Z,27.90
2023-02-15T11:10:52.840Z,28.07
2023-02-15T11:12:21.135Z,24.70
2023-02-15T11:13:50.917Z,28.53
2023-02-15T11:15:31.850Z,27.43
2023-02-15T11:17:00.423Z,26.33
2023-02-15T11:18:34.223Z,26.47
2023-02-15T11:20:08.702Z,26.60
2023-02-15T11:21:43.874Z,26.50
2023-02-15T11:23:17.163Z,29.13
2023-02-15T11:24:43.936Z,27.30
2023-02-15T11:26:21.266Z,30.17
2023-02-15T11:27:45.088Z,28.67
2023-02-15T11:29:14.615Z,28.73
2023-02-15T11:30:46.195Z,29.90
2023-02-15T11:32:30.991Z,26.97
2023-02-15T11:33:59.334Z,27.77
2023-02-15T11:35:44.712Z,28.90
2023-02-15T11:37:16.572Z,29.87
2023-02-15T11:38:44.194Z,30.10
2023-02-15T11:40:27.728Z,27.70
2023-02-15T11:41:54.955Z,30.07
2023-02-15T11:43:57.136Z,29.57
2023-02-15T11:45:30.188Z,28.80
2023-02-15T11:46:52.501Z,28.63
2023-02-15T11:48:16.116Z,29.40
2023-02-15T11:49:39.273Z,29.37
2023-02-15T11:51:04.237Z,28.93
2023-02-15T11:52:26.639Z,31.93
2023-02-15T11:53:50.032Z,29.67
2023-02-15T11:55:20.945Z,29.40
2023-02-15T11:56:43.072Z,30.00
2023-02-15T11:58:17.290Z,29.60
2023-02-15T11:59:43.119Z,27.50
2023-02-15T12:01:17.576Z,29.33
2023-02-15T12:02:45.842Z,27.33
2023-02-15T12:04:16.913Z,29.70
2023-02-15T12:05:41.912Z,28.40
2023-02-15T12:07:42.580Z,27.73
2023-02-15T12:09:08.028Z,26.93
2023-02-15T12:10:35.640Z,26.53
2023-02-15T12:12:22.376Z,26.73
2023-02-15T12:14:02.887Z,26.50
2023-02-15T12:15:32.398Z,24.60
2023-02-15T12:16:56.839Z,28.57
2023-02-15T12:18:41.722Z,29.20
2023-02-15T12:20:15.252Z,27.47
2023-02-15T12:21:42.417Z,27.13
2023-02-15T12:23:12.663Z,27.93
2023-02-15T12:24:38.934Z,29.07
2023-02-15T12:26:01.343Z,28.97
2023-02-15T12:27:29.701Z,28.80
2023-02-15T12:28:53.295Z,27.20
2023-02-15T12:30:28.478Z,28.10
2023-02-15T12:31:53.500Z,29.60
2023-02-15T12:33:22.321Z,28.53
2023-02-15T12:34:45.864Z,26.80
2023-02-15T12:36:18.248Z,28.10
2023-02-15T12:37:40.383Z,27.50
2023-02-15T12:39:28.454Z,27.60
2023-02-15T12:41:06.048Z,29.47
2023-02-15T12:42:43.525Z,28.97
2023-02-15T12:44:07.762Z,25.50
2023-02-15T12:45:38.336Z,26.40
2023-02-15T12:47:30.726Z,29.50
2023-02-15T12:49:20.770Z,27.30
2023-02-15T12:50:45.314Z,26.77
2023-02-15T12:52:21.026Z,27.23
2023-02-15T12:53:45.127Z,26.47
2023-02-15T12:55:28.154Z,27.60
2023-02-15T12:56:50.156Z,29.70
2023-02-15T12:58:21.580Z,29.50
2023-02-15T13:00:00.507Z,25.83
2023-02-15T13:01:26.432Z,26.93
2023-02-15T13:02:55.488Z,25.30
2023-02-15T13:04:27.257Z,26.00
2023-02-15T13:05:52.769Z,28.23
2023-02-15T13:07:15.781Z,27.53
2023-02-15T13:08:48.755Z,28.70
2023-02-15T13:10:27.862Z,25.97
2023-02-15T13:11:50.395Z,25.70
2023-02-15T13:13:22.948Z,25.60
2023-02-15T13:14:48.343Z,27.63
2023-02-15T13:16:14.686Z,27.10
2023-02-15T13:17:37.041Z,27.10
2023-02-15T13:19:03.370Z,25.80
2023-02-15T13:20:28.183Z,28.77
2023-02-15T13:21:53.361Z,28.87
2023-02-15T13:23:28.782Z,27.53
2023-02-15T13:24:59.890Z,29.47
2023-02-15T13:26:27.187Z,28.03
2023-02-15T13:27:55.803Z,29.40
2023-02-15T13:29:36.338Z,29.30
2023-02-15T13:30:58.596Z,28.60
2023-02-15T13:32:31.286Z,28.10
2023-02-15T13:34:02.654Z,28.30
2023-02-15T13:35:28.916Z,27.47
2023-02-15T13:37:05.000Z,29.13
2023-02-15T13:38:56.665Z,29.83
2023-02-15T13:40:43.514Z,29.17
2023-02-15T13:42:24.395Z,28.03
2023-02-15T13:43:49.618Z,28.30
2023-02-15T13:45:35.847Z,30.63
2023-02-15T13:47:15.328Z,27.00
2023-02-15T13:48:56.147Z,27.10
2023-02-15T13:50:30.248Z,26.90
2023-02-15T13:52:25.936Z,26.90
2023-02-15T13:54:16.712Z,27.23
2023-02-15T13:55:52.591Z,28.57
2023-02-15T13:57:32.743Z,26.10
2023-02-15T13:59:25.562Z,27.67
2023-02-15T14:01:06.105Z,28.17
2023-02-15T14:02:44.035Z,27.33
2023-02-15T14:04:24.958Z,28.30
2023-02-15T14:06:31.637Z,27.30
2023-02-15T14:08:10.976Z,24.93
2023-02-15T14:09:50.609Z,27.40
2023-02-15T14:11:38.891Z,26.50
2023-02-15T14:13:38.960Z,29.00
2023-02-15T14:15:13.332Z,27.37
2023-02-15T14:16:42.898Z,26.47
2023-02-15T14:18:32.962Z,25.90
2023-02-15T14:20:10.739Z,31.35
2023-02-15T14:21:42.703Z,29.30
2023-02-15T14:23:50.006Z,29.60
2023-02-15T14:25:34.819Z,27.53
2023-02-15T14:27:08.833Z,27.13
2023-02-15T14:28:52.909Z,28.40
2023-02-15T14:30:30.630Z,27.90
2023-02-15T14:32:04.382Z,27.30
2023-02-15T14:33:44.866Z,28.27
2023-02-15T14:35:16.556Z,27.10
2023-02-15T14:36:38.624Z,27.97
2023-02-15T14:38:15.590Z,27.70
2023-02-15T14:40:18.340Z,27.70
2023-02-15T14:41:53.765Z,29.90
2023-02-15T14:43:40.104Z,29.53
2023-02-15T14:45:13.789Z,27.13
2023-02-15T14:46:38.822Z,27.57
2023-02-15T14:48:20.888Z,27.70
2023-02-15T14:49:42.928Z,29.30
2023-02-15T14:51:05.579Z,31.13
2023-02-15T14:52:27.865Z,27.27
2023-02-15T14:53:50.206Z,29.85
2023-02-15T14:55:38.352Z,30.40
2023-02-15T14:57:05.096Z,29.00
2023-02-15T14:58:27.975Z,27.90
2023-02-15T14:59:59.105Z,28.00
2023-02-15T15:01:33.546Z,28.03
2023-02-15T15:02:55.839Z,28.80
2023-02-15T15:04:45.564Z,29.15
2023-02-15T15:06:08.029Z,29.57
2023-02-15T15:07:54.765Z,30.33
2023-02-15T15:09:29.498Z,28.93
2023-02-15T15:10:51.701Z,27.90
2023-02-15T15:12:37.911Z,29.03
2023-02-15T15:14:01.558Z,27.30
2023-02-15T15:15:32.530Z,27.37
2023-02-15T15:16:54.783Z,28.60
2023-02-15T15:18:48.694Z,29.33
2023-02-15T15:20:40.544Z,30.30
2023-02-15T15:22:05.477Z,28.83
2023-02-15T15:23:43.056Z,28.40
2023-02-15T15:25:10.520Z,30.40
2023-02-15T15:26:41.656Z,29.27
2023-02-15T15:28:04.491Z,31.00
2023-02-15T15:29:40.940Z,30.13
2023-02-15T15:31:36.711Z,31.37
2023-02-15T15:33:08.008Z,30.93
2023-02-15T15:35:02.215Z,30.73
2023-02-15T15:36:42.656Z,31.07
2023-02-15T15:38:32.610Z,29.37
2023-02-15T15:40:09.788Z,27.53
2023-02-15T15:41:46.629Z,28.13
2023-02-15T15:43:48.644Z,29.57
2023-02-15T15:45:57.188Z,29.60
2023-02-15T15:47:40.400Z,30.93
2023-02-15T15:49:09.732Z,31.40
2023-02-15T15:50:32.691Z,30.77
2023-02-15T15:51:55.107Z,32.23
2023-02-15T15:53:22.516Z,32.10
2023-02-15T15:54:48.106Z,30.50
2023-02-15T15:56:18.050Z,29.87
2023-02-15T15:57:43.612Z,30.47
2023-02-15T15:59:09.371Z,30.60
2023-02-15T16:00:51.560Z,31.83
2023-02-15T16:02:18.743Z,31.93
2023-02-15T16:03:51.276Z,33.70
2023-02-15T16:05:13.888Z,32.03
2023-02-15T16:06:38.109Z,31.83
2023-02-15T16:08:00.390Z,33.40
2023-02-15T16:09:25.271Z,33.20
2023-02-15T16:10:47.509Z,33.23
2023-02-15T16:12:22.359Z,36.10
2023-02-15T16:13:45.853Z,34.57
2023-02-15T16:15:24.539Z,32.93
2023-02-15T16:16:53.194Z,36.63
2023-02-15T16:18:17.982Z,33.77
2023-02-15T16:19:42.820Z,34.30
2023-02-15T16:21:05.485Z,32.97
2023-02-15T16:22:28.856Z,34.53
2023-02-15T16:24:09.589Z,32.43
2023-02-15T16:25:36.253Z,34.17
2023-02-15T16:27:20.347Z,31.90
2023-02-15T16:28:52.667Z,32.00
2023-02-15T16:30:23.602Z,29.93
2023-02-15T16:32:01.553Z,31.00
2023-02-15T16:34:33.679Z,32.10
2023-02-15T16:35:58.302Z,32.87
2023-02-15T16:37:24.401Z,32.80
2023-02-15T16:38:46.674Z,30.90
2023-02-15T16:40:27.347Z,32.10
2023-02-15T16:41:55.307Z,31.03
2023-02-15T16:43:25.549Z,37.50
2023-02-15T16:45:03.652Z,42.13
2023-02-15T16:46:30.504Z,43.17
2023-02-15T16:47:58.046Z,48.03
2023-02-15T16:49:25.905Z,46.50
2023-02-15T16:50:54.589Z,40.93
2023-02-15T16:52:25.174Z,41.27
2023-02-15T16:53:51.469Z,39.80
2023-02-15T16:55:28.745Z,42.07
2023-02-15T16:56:50.977Z,36.30
2023-02-15T16:58:18.171Z,39.20
2023-02-15T16:59:45.835Z,33.60
2023-02-15T17:01:10.855Z,38.47
2023-02-15T17:02:55.722Z,39.07
2023-02-15T17:04:22.824Z,41.07
2023-02-15T17:05:48.745Z,39.60
2023-02-15T17:07:21.032Z,40.97
2023-02-15T17:08:45.267Z,41.00
2023-02-15T17:10:33.940Z,35.70
2023-02-15T17:11:56.085Z,38.60
2023-02-15T17:13:19.018Z,38.63
2023-02-15T17:14:41.156Z,34.87
2023-02-15T17:16:04.088Z,36.00
2023-02-15T17:17:26.805Z,39.50
2023-02-15T17:18:49.005Z,40.10
2023-02-15T17:20:16.337Z,37.40
2023-02-15T17:21:43.195Z,39.17
2023-02-15T17:23:06.484Z,37.13
2023-02-15T17:24:43.995Z,35.70
2023-02-15T17:26:19.709Z,33.20
2023-02-15T17:27:41.908Z,34.77
2023-02-15T17:29:40.416Z,36.93
2023-02-15T17:31:08.630Z,36.00
2023-02-15T17:32:33.874Z,34.30
2023-02-15T17:33:57.485Z,36.00
2023-02-15T17:36:02.345Z,35.50
2023-02-15T17:37:30.761Z,32.17
2023-02-15T17:38:59.489Z,35.00
2023-02-15T17:40:30.666Z,36.83
2023-02-15T17:41:53.946Z,38.60
2023-02-15T17:43:16.064Z,41.00
2023-02-15T17:44:38.148Z,46.07
2023-02-15T17:46:00.526Z,42.30
2023-02-15T17:47:27.559Z,42.30
2023-02-15T17:48:52.123Z,41.60
2023-02-15T17:50:24.311Z,37.97
2023-02-15T17:51:46.738Z,38.17
2023-02-15T17:53:09.762Z,32.97
2023-02-15T17:54:50.565Z,32.90
2023-02-15T17:56:12.606Z,31.90
2023-02-15T17:57:34.726Z,29.90
2023-02-15T17:58:56.764Z,33.10
2023-02-15T18:00:37.538Z,32.87
2023-02-15T18:02:18.386Z,29.83
2023-02-15T18:04:07.378Z,32.03
2023-02-15T18:05:48.165Z,29.13
2023-02-15T18:07:31.431Z,26.13
2023-02-15T18:09:12.752Z,27.77
2023-02-15T18:10:53.613Z,28.77
2023-02-15T18:12:27.816Z,30.77
2023-02-15T18:13:49.835Z,32.73
2023-02-15T18:15:13.131Z,33.10
2023-02-15T18:16:43.093Z,34.00
2023-02-15T18:18:05.331Z,32.00
2023-02-15T18:19:28.128Z,28.37
2023-02-15T18:20:50.626Z,29.00
2023-02-15T18:22:16.322Z,28.63
2023-02-15T18:23:39.641Z,29.20
2023-02-15T18:25:01.961Z,27.57
2023-02-15T18:26:26.209Z,28.70
2023-02-15T18:27:48.292Z,28.37
2023-02-15T18:29:10.653Z,30.60
2023-02-15T18:30:33.549Z,28.67
2023-02-15T18:31:57.748Z,27.90
2023-02-15T18:33:34.994Z,30.47
2023-02-15T18:34:58.394Z,27.60
2023-02-15T18:36:45.052Z,29.10
2023-02-15T18:38:10.525Z,28.97
2023-02-15T18:39:40.869Z,27.23
2023-02-15T18:41:04.896Z,26.73
2023-02-15T18:42:31.493Z,26.90
2023-02-15T18:43:55.328Z,25.20
2023-02-15T18:45:28.401Z,26.30
2023-02-15T18:46:50.561Z,25.87
2023-02-15T18:48:13.333Z,25.67
2023-02-15T18:49:35.688Z,24.33
2023-02-15T18:50:58.447Z,21.67
2023-02-15T18:52:27.265Z,23.07
2023-02-15T18:53:52.030Z,22.07
2023-02-15T18:55:21.571Z,22.30
2023-02-15T18:56:43.661Z,24.20
2023-02-15T18:58:09.975Z,23.03
2023-02-15T18:59:32.883Z,23.40
2023-02-15T19:00:54.967Z,22.67
2023-02-15T19:02:18.847Z,23.00
2023-02-15T19:03:41.131Z,23.50
2023-02-15T19:05:03.229Z,22.80
2023-02-15T19:06:25.277Z,23.87
2023-02-15T19:07:48.657Z,23.33
2023-02-15T19:09:15.954Z,23.23
2023-02-15T19:10:38.149Z,22.37